createdAt,value
2018-08-30T00:01:22.218Z,100272.00
2018-08-30T00:03:51.348Z,100281.00
2018-08-30T00:06:20.470Z,100270.00
2018-08-30T00:08:49.547Z,100271.00
2018-08-30T00:11:18.608Z,100277.00
2018-08-30T00:13:47.695Z,100279.00
2018-08-30T00:16:16.895Z,100281.00
2018-08-30T00:18:45.950Z,100277.00
2018-08-30T00:21:15.129Z,100286.00
2018-08-30T00:23:44.306Z,100289.00
2018-08-30T00:26:13.583Z,100302.00
2018-08-30T00:28:42.646Z,100299.00
2018-08-30T00:31:11.720Z,100297.00
2018-08-30T00:33:40.761Z,100301.00
2018-08-30T00:36:09.812Z,100297.00
2018-08-30T00:38:38.894Z,100297.00
2018-08-30T00:41:07.960Z,100296.00
2018-08-30T00:43:37.159Z,100301.00
2018-08-30T00:46:06.324Z,100297.00
2018-08-30T00:48:35.360Z,100292.00
2018-08-30T00:51:04.400Z,100290.00
2018-08-30T00:53:57.848Z,100290.00
2018-08-30T00:56:26.985Z,100293.00
2018-08-30T00:58:56.043Z,100300.00
2018-08-30T01:01:25.072Z,100300.00
2018-08-30T01:03:54.119Z,100303.00
2018-08-30T01:06:23.147Z,100305.00
2018-08-30T01:09:13.448Z,100307.00
2018-08-30T01:11:42.514Z,100305.00
2018-08-30T01:14:11.714Z,100302.00
2018-08-30T01:16:40.797Z,100306.00
2018-08-30T01:19:09.883Z,100302.00
2018-08-30T01:21:38.962Z,100306.00
2018-08-30T01:24:08.006Z,100306.00
2018-08-30T01:26:37.138Z,100299.00
2018-08-30T01:29:06.212Z,100311.00
2018-08-30T01:31:35.415Z,100316.00
2018-08-30T01:34:04.622Z,100312.00
2018-08-30T01:36:34.480Z,100313.00
2018-08-30T01:39:04.076Z,100317.00
2018-08-30T01:41:33.145Z,100320.00
2018-08-30T01:44:02.265Z,100331.00
2018-08-30T01:46:31.399Z,100322.00
2018-08-30T01:49:10.715Z,100337.00
2018-08-30T01:51:39.841Z,100314.00
2018-08-30T01:54:08.911Z,100323.00
2018-08-30T01:56:38.027Z,100313.00
2018-08-30T01:59:07.114Z,100320.00
2018-08-30T02:01:36.182Z,100331.00
2018-08-30T02:04:05.271Z,100335.00
2018-08-30T02:06:35.140Z,100341.00
2018-08-30T02:09:05.391Z,100343.00
2018-08-30T02:11:34.416Z,100346.00
2018-08-30T02:14:03.433Z,100349.00
2018-08-30T02:16:32.481Z,100360.00
2018-08-30T02:19:02.414Z,100360.00
2018-08-30T02:21:31.457Z,100360.00
2018-08-30T02:24:00.506Z,100366.00
2018-08-30T02:26:29.611Z,100359.00
2018-08-30T02:28:58.618Z,100370.00
2018-08-30T02:31:27.659Z,100364.00
2018-08-30T02:33:56.704Z,100364.00
2018-08-30T02:36:25.756Z,100354.00
2018-08-30T02:39:21.339Z,100350.00
2018-08-30T02:41:50.397Z,100358.00
2018-08-30T02:44:19.516Z,100358.00
2018-08-30T02:46:48.609Z,100354.00
2018-08-30T02:49:17.727Z,100355.00
2018-08-30T02:51:48.240Z,100357.00
2018-08-30T02:54:17.358Z,100363.00
2018-08-30T02:56:46.444Z,100358.00
2018-08-30T02:59:15.541Z,100365.00
2018-08-30T03:01:44.593Z,100365.00
2018-08-30T03:04:13.685Z,100368.00
2018-08-30T03:06:42.706Z,100359.00
2018-08-30T03:09:11.726Z,100369.00
2018-08-30T03:11:40.829Z,100372.00
2018-08-30T03:14:09.972Z,100371.00
2018-08-30T03:16:39.034Z,100384.00
2018-08-30T03:19:24.138Z,100378.00
2018-08-30T03:21:53.300Z,100396.00
2018-08-30T03:24:25.516Z,100394.00
2018-08-30T03:26:54.707Z,100399.00
2018-08-30T03:29:23.895Z,100405.00
2018-08-30T03:31:53.073Z,100401.00
2018-08-30T03:34:22.166Z,100394.00
2018-08-30T03:36:51.327Z,100403.00
2018-08-30T03:39:22.036Z,100408.00
2018-08-30T03:41:53.577Z,100408.00
2018-08-30T03:44:22.756Z,100411.00
2018-08-30T03:46:51.796Z,100419.00
2018-08-30T03:49:20.879Z,100418.00
2018-08-30T03:51:50.039Z,100424.00
2018-08-30T03:54:19.101Z,100426.00
2018-08-30T03:56:48.158Z,100428.00
2018-08-30T03:59:17.209Z,100429.00
2018-08-30T04:01:46.229Z,100424.00
2018-08-30T04:04:15.433Z,100436.00
2018-08-30T04:06:44.709Z,100427.00
2018-08-30T04:09:13.835Z,100429.00
2018-08-30T04:11:43.009Z,100429.00
2018-08-30T04:14:12.356Z,100429.00
2018-08-30T04:16:41.427Z,100429.00
2018-08-30T04:19:11.121Z,100430.00
2018-08-30T04:21:44.224Z,100432.00
2018-08-30T04:24:13.470Z,100422.00
2018-08-30T04:26:42.627Z,100425.00
2018-08-30T04:29:15.403Z,100421.00
2018-08-30T04:31:44.589Z,100432.00
2018-08-30T04:34:13.709Z,100431.00
2018-08-30T04:36:42.917Z,100426.00
2018-08-30T04:39:17.855Z,100435.00
2018-08-30T04:41:47.938Z,100426.00
2018-08-30T04:44:33.929Z,100429.00
2018-08-30T04:47:03.822Z,100432.00
2018-08-30T04:50:07.183Z,100431.00
2018-08-30T04:52:37.467Z,100442.00
2018-08-30T04:55:07.552Z,100442.00
2018-08-30T04:57:38.407Z,100443.00
2018-08-30T05:00:09.219Z,100444.00
2018-08-30T05:02:38.514Z,100441.00
2018-08-30T05:05:07.783Z,100442.00
2018-08-30T05:07:37.335Z,100438.00
2018-08-30T05:10:06.884Z,100440.00
2018-08-30T05:12:36.040Z,100443.00
2018-08-30T05:15:05.634Z,100453.00
2018-08-30T05:17:35.278Z,100445.00
2018-08-30T05:20:14.417Z,100443.00
2018-08-30T05:22:43.524Z,100457.00
2018-08-30T05:26:17.976Z,100449.00
2018-08-30T05:28:47.101Z,100440.00
2018-08-30T05:31:17.162Z,100436.00
2018-08-30T05:33:46.395Z,100438.00
2018-08-30T05:36:15.825Z,100437.00
2018-08-30T05:38:45.363Z,100440.00
2018-08-30T05:41:22.660Z,100447.00
2018-08-30T05:43:51.787Z,100436.00
2018-08-30T05:46:42.137Z,100429.00
2018-08-30T05:49:44.104Z,100431.00
2018-08-30T05:52:44.506Z,100442.00
2018-08-30T05:55:43.759Z,100437.00
2018-08-30T05:58:13.064Z,100441.00
2018-08-30T06:00:45.954Z,100438.00
2018-08-30T06:03:15.022Z,100439.00
2018-08-30T06:05:44.555Z,100444.00
2018-08-30T06:08:13.720Z,100439.00
2018-08-30T06:10:42.837Z,100443.00
2018-08-30T06:13:11.941Z,100445.00
2018-08-30T06:15:43.679Z,100445.00
2018-08-30T06:18:12.903Z,100441.00
2018-08-30T06:20:53.133Z,100442.00
2018-08-30T06:23:32.878Z,100446.00
2018-08-30T06:29:09.220Z,100445.00
2018-08-30T06:34:38.879Z,100458.00
2018-08-30T06:37:27.811Z,100463.00
2018-08-30T06:42:50.299Z,100462.00
2018-08-30T06:45:19.400Z,100464.00
2018-08-30T06:47:49.000Z,100466.00
2018-08-30T06:50:20.466Z,100475.00
2018-08-30T06:52:53.275Z,100474.00
2018-08-30T06:55:25.586Z,100477.00
2018-08-30T06:58:11.330Z,100476.00
2018-08-30T07:00:41.206Z,100483.00
2018-08-30T07:03:18.393Z,100485.00
2018-08-30T07:05:47.644Z,100491.00
2018-08-30T07:08:17.416Z,100477.00
2018-08-30T07:11:04.338Z,100476.00
2018-08-30T07:13:33.990Z,100483.00
2018-08-30T07:16:03.345Z,100486.00
2018-08-30T07:18:32.990Z,100485.00
2018-08-30T07:21:07.624Z,100485.00
2018-08-30T07:24:00.020Z,100487.00
2018-08-30T07:26:30.723Z,100493.00
2018-08-30T07:32:10.949Z,100525.00
2018-08-30T07:34:40.150Z,100490.00
2018-08-30T07:37:09.378Z,100496.00
2018-08-30T07:39:38.492Z,100498.00
2018-08-30T07:42:07.698Z,100495.00
2018-08-30T07:44:36.954Z,100499.00
2018-08-30T07:47:06.327Z,100506.00
2018-08-30T07:49:35.849Z,100509.00
2018-08-30T07:52:04.977Z,100521.00
2018-08-30T07:54:34.161Z,100525.00
2018-08-30T07:57:03.216Z,100519.00
2018-08-30T07:59:32.499Z,100520.00
2018-08-30T08:02:02.530Z,100516.00
2018-08-30T08:04:31.611Z,100523.00
2018-08-30T08:07:00.697Z,100533.00
2018-08-30T08:09:29.784Z,100520.00
2018-08-30T08:11:58.858Z,100530.00
2018-08-30T08:14:27.918Z,100533.00
2018-08-30T08:16:57.008Z,100529.00
2018-08-30T08:19:27.160Z,100533.00
2018-08-30T08:21:56.237Z,100535.00
2018-08-30T08:24:25.322Z,100536.00
2018-08-30T08:26:54.396Z,100535.00
2018-08-30T08:29:23.459Z,100537.00
2018-08-30T08:31:52.613Z,100539.00
2018-08-30T08:34:21.759Z,100546.00
2018-08-30T08:36:50.826Z,100543.00
2018-08-30T08:39:20.021Z,100542.00
2018-08-30T08:41:49.092Z,100544.00
2018-08-30T08:44:18.212Z,100546.00
2018-08-30T08:46:48.161Z,100551.00
2018-08-30T08:49:17.234Z,100551.00
2018-08-30T08:51:46.390Z,100561.00
2018-08-30T08:54:15.627Z,100560.00
2018-08-30T08:56:44.901Z,100560.00
2018-08-30T08:59:14.076Z,100559.00
2018-08-30T09:01:43.146Z,100560.00
2018-08-30T09:04:12.203Z,100561.00
2018-08-30T09:06:41.367Z,100565.00
2018-08-30T09:09:11.961Z,100559.00
2018-08-30T09:11:41.801Z,100559.00
2018-08-30T09:14:11.130Z,100564.00
2018-08-30T09:16:40.257Z,100564.00
2018-08-30T09:19:09.397Z,100565.00
2018-08-30T09:21:39.497Z,100569.00
2018-08-30T09:24:08.577Z,100573.00
2018-08-30T09:26:37.651Z,100542.00
2018-08-30T09:29:06.820Z,100577.00
2018-08-30T09:31:35.872Z,100576.00
2018-08-30T09:34:05.152Z,100580.00
2018-08-30T09:36:34.246Z,100587.00
2018-08-30T09:39:03.413Z,100595.00
2018-08-30T09:41:32.682Z,100596.00
2018-08-30T09:44:01.760Z,100590.00
2018-08-30T09:46:30.839Z,100590.00
2018-08-30T09:48:59.995Z,100594.00
2018-08-30T09:51:29.067Z,100600.00
2018-08-30T09:53:58.195Z,100603.00
2018-08-30T09:56:27.381Z,100599.00
2018-08-30T09:58:56.992Z,100595.00
2018-08-30T10:01:31.492Z,100595.00
2018-08-30T10:04:00.580Z,100604.00
2018-08-30T10:06:29.964Z,100597.00
2018-08-30T10:08:59.493Z,100597.00
2018-08-30T10:11:28.585Z,100601.00
2018-08-30T10:13:57.975Z,100607.00
2018-08-30T10:16:27.302Z,100611.00
2018-08-30T10:18:56.623Z,100610.00
2018-08-30T10:21:25.701Z,100608.00
2018-08-30T10:23:54.845Z,100615.00
2018-08-30T10:26:24.124Z,100612.00
2018-08-30T10:28:53.843Z,100614.00
2018-08-30T10:31:22.955Z,100603.00
2018-08-30T10:33:59.708Z,100609.00
2018-08-30T10:36:28.841Z,100608.00
2018-08-30T10:38:57.953Z,100610.00
2018-08-30T10:41:27.268Z,100616.00
2018-08-30T10:43:56.342Z,100615.00
2018-08-30T10:46:25.418Z,100619.00
2018-08-30T10:48:54.483Z,100625.00
2018-08-30T10:51:23.553Z,100598.00
2018-08-30T10:53:52.631Z,100630.00
2018-08-30T10:56:21.711Z,100632.00
2018-08-30T10:58:50.741Z,100637.00
2018-08-30T11:01:19.788Z,100644.00
2018-08-30T11:03:48.953Z,100638.00
2018-08-30T11:06:18.182Z,100654.00
2018-08-30T11:08:47.239Z,100665.00
2018-08-30T11:11:16.326Z,100654.00
2018-08-30T11:13:45.615Z,100670.00
2018-08-30T11:16:14.666Z,100665.00
2018-08-30T11:18:43.843Z,100671.00
2018-08-30T11:21:13.087Z,100669.00
2018-08-30T11:23:42.238Z,100685.00
2018-08-30T11:26:11.413Z,100685.00
2018-08-30T11:28:40.628Z,100684.00
2018-08-30T11:31:09.924Z,100689.00
2018-08-30T11:33:39.042Z,100687.00
2018-08-30T11:36:08.129Z,100695.00
2018-08-30T11:38:37.419Z,100695.00
2018-08-30T11:41:06.646Z,100702.00
2018-08-30T11:43:35.884Z,100697.00
2018-08-30T11:46:05.038Z,100704.00
2018-08-30T11:48:34.132Z,100703.00
2018-08-30T11:51:03.341Z,100703.00
2018-08-30T11:53:32.383Z,100706.00
2018-08-30T11:56:01.535Z,100704.00
2018-08-30T11:58:30.638Z,100715.00
2018-08-30T12:00:59.748Z,100720.00
2018-08-30T12:03:28.817Z,100720.00
2018-08-30T12:05:57.895Z,100734.00
2018-08-30T12:08:27.121Z,100734.00
2018-08-30T12:10:56.228Z,100733.00
2018-08-30T12:13:25.395Z,100739.00
2018-08-30T12:15:54.443Z,100740.00
2018-08-30T12:18:23.587Z,100747.00
2018-08-30T12:20:52.885Z,100740.00
2018-08-30T12:23:22.794Z,100760.00
2018-08-30T12:25:52.470Z,100751.00
2018-08-30T12:28:21.817Z,100762.00
2018-08-30T12:30:51.143Z,100760.00
2018-08-30T12:33:20.409Z,100760.00
2018-08-30T12:35:50.240Z,100761.00
2018-08-30T12:38:19.382Z,100765.00
2018-08-30T12:40:48.867Z,100770.00
2018-08-30T12:43:18.152Z,100767.00
2018-08-30T12:45:47.327Z,100762.00
2018-08-30T12:48:16.537Z,100780.00
2018-08-30T12:50:45.711Z,100774.00
2018-08-30T12:53:14.820Z,100785.00
2018-08-30T12:55:44.018Z,100777.00
2018-08-30T12:58:13.216Z,100777.00
2018-08-30T13:00:42.188Z,100785.00
2018-08-30T13:03:11.363Z,100785.00
2018-08-30T13:05:41.426Z,100785.00
2018-08-30T13:08:10.230Z,100789.00
2018-08-30T13:10:39.469Z,100787.00
2018-08-30T13:13:08.819Z,100804.00
2018-08-30T13:15:37.785Z,100801.00
2018-08-30T13:18:07.069Z,100809.00
2018-08-30T13:20:36.562Z,100804.00
2018-08-30T13:23:05.592Z,100814.00
2018-08-30T13:25:35.231Z,100810.00
2018-08-30T13:28:04.497Z,100811.00
2018-08-30T13:30:33.980Z,100816.00
2018-08-30T13:33:04.817Z,100825.00
2018-08-30T13:35:34.346Z,100834.00
2018-08-30T13:38:03.730Z,100822.00
2018-08-30T13:40:33.155Z,100831.00
2018-08-30T13:43:02.654Z,100833.00
2018-08-30T13:45:32.131Z,100843.00
2018-08-30T13:48:02.125Z,100843.00
2018-08-30T13:50:31.377Z,100849.00
2018-08-30T13:53:01.493Z,100857.00
2018-08-30T13:55:30.797Z,100868.00
2018-08-30T13:57:59.970Z,100853.00
2018-08-30T14:00:29.451Z,100854.00
2018-08-30T14:02:58.056Z,100862.00
2018-08-30T14:05:27.201Z,100862.00
2018-08-30T14:07:56.281Z,100881.00
2018-08-30T14:10:25.536Z,100873.00
2018-08-30T14:12:54.474Z,100879.00
2018-08-30T14:15:24.904Z,100877.00
2018-08-30T14:17:53.778Z,100883.00
2018-08-30T14:20:23.755Z,100886.00
2018-08-30T14:22:55.485Z,100894.00
2018-08-30T14:25:24.635Z,100893.00
2018-08-30T14:27:54.735Z,100886.00
2018-08-30T14:30:24.044Z,100894.00
2018-08-30T14:32:53.174Z,100894.00
2018-08-30T14:35:22.459Z,100897.00
2018-08-30T14:37:51.548Z,100898.00
2018-08-30T14:40:20.814Z,100896.00
2018-08-30T14:42:49.762Z,100893.00
2018-08-30T14:45:18.835Z,100898.00
2018-08-30T14:47:48.129Z,100896.00
2018-08-30T14:50:17.167Z,100907.00
2018-08-30T14:52:46.261Z,100900.00
2018-08-30T14:55:15.444Z,100903.00
2018-08-30T14:57:44.749Z,100893.00
2018-08-30T15:00:14.018Z,100898.00
2018-08-30T15:02:43.085Z,100903.00
2018-08-30T15:05:12.363Z,100912.00
2018-08-30T15:07:41.413Z,100907.00
2018-08-30T15:10:10.541Z,100916.00
2018-08-30T15:12:39.663Z,100911.00
2018-08-30T15:15:08.762Z,100912.00
2018-08-30T15:17:37.875Z,100918.00
2018-08-30T15:20:07.624Z,100923.00
2018-08-30T15:22:36.982Z,100922.00
2018-08-30T15:25:06.277Z,100928.00
2018-08-30T15:27:35.641Z,100924.00
2018-08-30T15:30:04.976Z,100929.00
2018-08-30T15:32:34.771Z,100924.00
2018-08-30T15:35:04.081Z,100926.00
2018-08-30T15:37:33.592Z,100938.00
2018-08-30T15:40:02.989Z,100932.00
2018-08-30T15:42:32.111Z,100933.00
2018-08-30T15:45:01.214Z,100933.00
2018-08-30T15:47:30.407Z,100930.00
2018-08-30T15:50:00.801Z,100927.00
2018-08-30T15:52:29.951Z,100936.00
2018-08-30T15:54:59.066Z,100932.00
2018-08-30T15:57:28.222Z,100943.00
2018-08-30T15:59:57.547Z,100946.00
2018-08-30T16:02:26.744Z,100929.00
2018-08-30T16:04:55.913Z,100938.00
2018-08-30T16:07:25.126Z,100944.00
2018-08-30T16:09:54.358Z,100941.00
2018-08-30T16:12:23.799Z,100942.00
2018-08-30T16:14:53.242Z,100944.00
2018-08-30T16:17:22.692Z,100937.00
2018-08-30T16:19:51.723Z,100934.00
2018-08-30T16:22:21.997Z,100942.00
2018-08-30T16:24:51.215Z,100934.00
2018-08-30T16:27:20.996Z,100933.00
2018-08-30T16:29:50.072Z,100939.00
2018-08-30T16:32:19.221Z,100933.00
2018-08-30T16:34:48.367Z,100934.00
2018-08-30T16:37:17.426Z,100933.00
2018-08-30T16:39:46.528Z,100932.00
2018-08-30T16:42:15.666Z,100934.00
2018-08-30T16:44:44.753Z,100932.00
2018-08-30T16:47:13.848Z,100953.00
2018-08-30T16:49:42.862Z,100948.00
2018-08-30T16:52:11.997Z,100950.00
2018-08-30T16:54:41.055Z,100953.00
2018-08-30T16:57:10.427Z,100967.00
2018-08-30T16:59:39.520Z,100963.00
2018-08-30T17:02:08.838Z,100957.00
2018-08-30T17:04:37.989Z,100963.00
2018-08-30T17:07:07.486Z,100962.00
2018-08-30T17:09:37.451Z,100975.00
2018-08-30T17:12:06.852Z,100971.00
2018-08-30T17:14:36.000Z,100979.00
2018-08-30T17:17:05.495Z,100975.00
2018-08-30T17:19:34.721Z,100976.00
2018-08-30T17:22:04.017Z,100974.00
2018-08-30T17:24:33.207Z,100973.00
2018-08-30T17:27:02.384Z,100978.00
2018-08-30T17:29:31.596Z,100988.00
2018-08-30T17:32:00.629Z,100978.00
2018-08-30T17:34:29.759Z,100989.00
2018-08-30T17:36:58.936Z,100991.00
2018-08-30T17:39:28.281Z,101001.00
2018-08-30T17:41:57.448Z,101000.00
2018-08-30T17:44:26.798Z,101005.00
2018-08-30T17:46:56.613Z,101009.00
2018-08-30T17:49:25.706Z,101009.00
2018-08-30T17:51:55.266Z,101013.00
2018-08-30T17:54:24.776Z,101017.00
2018-08-30T17:56:53.882Z,101013.00
2018-08-30T17:59:23.961Z,101025.00
2018-08-30T18:01:53.093Z,101027.00
2018-08-30T18:04:22.270Z,101024.00
2018-08-30T18:06:51.478Z,101028.00
2018-08-30T18:09:20.718Z,101021.00
2018-08-30T18:11:49.967Z,101029.00
2018-08-30T18:14:19.308Z,101039.00
2018-08-30T18:16:48.556Z,101033.00
2018-08-30T18:19:19.463Z,101044.00
2018-08-30T18:21:48.679Z,101050.00
2018-08-30T18:24:17.955Z,101049.00
2018-08-30T18:26:47.391Z,101057.00
2018-08-30T18:29:16.808Z,101059.00
2018-08-30T18:31:46.185Z,101067.00
2018-08-30T18:34:15.588Z,101067.00
2018-08-30T18:36:44.937Z,101070.00
2018-08-30T18:39:14.253Z,101071.00
2018-08-30T18:41:43.402Z,101078.00
2018-08-30T18:44:12.559Z,101079.00
2018-08-30T18:46:41.891Z,101079.00
2018-08-30T18:49:11.188Z,101085.00
2018-08-30T18:51:40.315Z,101084.00
2018-08-30T18:54:09.533Z,101089.00
2018-08-30T18:56:40.669Z,101093.00
2018-08-30T18:59:13.017Z,101092.00
2018-08-30T19:01:44.986Z,101092.00
2018-08-30T19:04:14.316Z,101092.00
2018-08-30T19:06:44.076Z,101105.00
2018-08-30T19:09:13.359Z,101107.00
2018-08-30T19:11:42.985Z,101109.00
2018-08-30T19:14:12.210Z,101118.00
2018-08-30T19:16:46.835Z,101113.00
2018-08-30T19:19:17.986Z,101112.00
2018-08-30T19:21:47.157Z,101116.00
2018-08-30T19:24:22.773Z,101117.00
2018-08-30T19:26:54.343Z,101115.00
2018-08-30T19:29:32.002Z,101123.00
2018-08-30T19:32:09.403Z,101121.00
2018-08-30T19:34:44.533Z,101118.00
2018-08-30T19:40:34.230Z,101121.00
2018-08-30T19:46:22.331Z,101120.00
2018-08-30T19:57:52.175Z,101127.00
2018-08-30T20:02:32.132Z,101136.00
2018-08-30T20:05:01.448Z,101137.00
2018-08-30T20:07:35.025Z,101136.00
2018-08-30T20:10:04.921Z,101138.00
2018-08-30T20:12:34.035Z,101144.00
2018-08-30T20:15:03.735Z,101152.00
2018-08-30T20:17:32.814Z,101148.00
2018-08-30T20:20:01.954Z,101154.00
2018-08-30T20:22:31.176Z,101157.00
2018-08-30T20:25:00.334Z,101160.00
2018-08-30T20:27:29.512Z,101152.00
2018-08-30T20:29:58.650Z,101157.00
2018-08-30T20:32:27.749Z,101156.00
2018-08-30T20:34:57.400Z,101167.00
2018-08-30T20:37:26.627Z,101163.00
2018-08-30T20:39:55.785Z,101165.00
2018-08-30T20:42:25.016Z,101164.00
2018-08-30T20:44:54.270Z,101162.00
2018-08-30T20:47:23.603Z,101163.00
2018-08-30T20:49:53.014Z,101167.00
2018-08-30T20:52:22.513Z,101164.00
2018-08-30T20:54:52.025Z,101172.00
2018-08-30T20:57:22.397Z,101174.00
2018-08-30T20:59:51.719Z,101169.00
2018-08-30T21:02:44.535Z,101171.00
2018-08-30T21:05:13.866Z,101173.00
2018-08-30T21:07:43.034Z,101173.00
2018-08-30T21:10:12.195Z,101172.00
2018-08-30T21:12:41.332Z,101172.00
2018-08-30T21:15:10.465Z,101167.00
2018-08-30T21:17:39.616Z,101164.00
2018-08-30T21:20:08.743Z,101182.00
2018-08-30T21:22:37.921Z,101174.00
2018-08-30T21:25:07.198Z,101170.00
2018-08-30T21:27:36.387Z,101172.00
2018-08-30T21:30:06.048Z,101171.00
2018-08-30T21:32:35.248Z,101169.00
2018-08-30T21:35:06.684Z,101181.00
2018-08-30T21:37:36.056Z,101180.00
2018-08-30T21:40:05.284Z,101177.00
2018-08-30T21:42:34.438Z,101178.00
2018-08-30T21:45:03.591Z,101190.00
2018-08-30T21:47:32.809Z,101190.00
2018-08-30T21:50:02.118Z,101181.00
2018-08-30T21:52:31.438Z,101183.00
2018-08-30T21:55:01.818Z,101189.00
2018-08-30T21:57:31.079Z,101186.00
2018-08-30T22:00:00.462Z,101183.00
2018-08-30T22:02:29.615Z,101185.00
2018-08-30T22:04:58.643Z,101185.00
2018-08-30T22:07:27.802Z,101190.00
2018-08-30T22:09:56.839Z,101189.00
2018-08-30T22:12:25.886Z,101191.00
2018-08-30T22:14:54.919Z,101193.00
2018-08-30T22:17:23.961Z,101194.00
2018-08-30T22:19:52.999Z,101195.00
2018-08-30T22:22:21.999Z,101192.00
2018-08-30T22:24:51.059Z,101196.00
2018-08-30T22:27:20.061Z,101196.00
2018-08-30T22:29:49.155Z,101203.00
2018-08-30T22:32:18.190Z,101200.00
2018-08-30T22:34:47.280Z,101198.00
2018-08-30T22:37:16.337Z,101198.00
2018-08-30T22:39:45.416Z,101196.00
2018-08-30T22:42:14.463Z,101198.00
2018-08-30T22:44:43.567Z,101193.00
2018-08-30T22:47:12.695Z,101196.00
2018-08-30T22:49:41.780Z,101199.00
2018-08-30T22:52:10.925Z,101192.00
2018-08-30T22:54:40.063Z,101196.00
2018-08-30T22:57:09.237Z,101194.00
2018-08-30T22:59:38.347Z,101197.00
2018-08-30T23:02:07.427Z,101200.00
2018-08-30T23:04:36.509Z,101202.00
2018-08-30T23:07:05.683Z,101193.00
2018-08-30T23:09:34.904Z,101194.00
2018-08-30T23:12:03.961Z,101198.00
2018-08-30T23:14:33.100Z,101198.00
2018-08-30T23:17:02.134Z,101194.00
2018-08-30T23:19:31.247Z,101190.00
2018-08-30T23:22:00.297Z,101191.00
2018-08-30T23:24:29.323Z,101191.00
2018-08-30T23:26:58.358Z,101188.00
2018-08-30T23:29:27.515Z,101195.00
2018-08-30T23:31:56.575Z,101195.00
2018-08-30T23:34:25.637Z,101189.00
2018-08-30T23:36:54.932Z,101188.00
2018-08-30T23:39:24.144Z,101193.00
2018-08-30T23:41:53.223Z,101194.00
2018-08-30T23:44:22.340Z,101190.00
2018-08-30T23:46:51.474Z,101196.00
2018-08-30T23:49:22.401Z,101189.00
2018-08-30T23:51:51.719Z,101192.00
2018-08-30T23:54:20.881Z,101191.00
2018-08-30T23:56:50.121Z,101189.00
2018-08-30T23:59:36.137Z,101188.00
